sensor_id;sensor_type;location;lat;lon;timestamp;pressure;altitude;pressure_sealevel;temperature;humidity
20444;BME280;10381;53.730;10.010;2023-05-02T00:01:34;101108.69;;;9.50;100.00
20444;BME280;10381;53.730;10.010;2023-05-02T00:05:35;101099.88;;;9.50;100.00
20444;BME280;10381;53.730;10.010;2023-05-02T00:09:35;101099.88;;;9.50;100.00
20444;BME280;10381;53.730;10.010;2023-05-02T00:13:36;101097.97;;;9.52;100.00
20444;BME280;10381;53.730;10.010;2023-05-02T00:17:38;101098.69;;;9.54;100.00
20444;BME280;10381;53.730;10.010;2023-05-02T00:21:39;101103.03;;;9.55;100.00
20444;BME280;10381;53.730;10.010;2023-05-02T00:25:44;101102.88;;;9.56;100.00
20444;BME280;10381;53.730;10.010;2023-05-02T00:29:44;101108.31;;;9.55;100.00
20444;BME280;10381;53.730;10.010;2023-05-02T00:33:46;101109.25;;;9.43;100.00
20444;BME280;10381;53.730;10.010;2023-05-02T00:37:47;101118.63;;;9.35;100.00
20444;BME280;10381;53.730;10.010;2023-05-02T00:41:47;101121.06;;;9.38;100.00
20444;BME280;10381;53.730;10.010;2023-05-02T00:45:47;101132.22;;;9.42;100.00
20444;BME280;10381;53.730;10.010;2023-05-02T00:49:51;101134.75;;;9.44;100.00
20444;BME280;10381;53.730;10.010;2023-05-02T00:53:51;101133.78;;;9.45;100.00
20444;BME280;10381;53.730;10.010;2023-05-02T00:57:52;101132.34;;;9.41;100.00
20444;BME280;10381;53.730;10.010;2023-05-02T01:02:04;101129.00;;;9.38;100.00
20444;BME280;10381;53.730;10.010;2023-05-02T01:06:36;101129.69;;;9.29;100.00
20444;BME280;10381;53.730;10.010;2023-05-02T01:10:52;101140.13;;;9.20;100.00
20444;BME280;10381;53.730;10.010;2023-05-02T01:14:57;101142.31;;;9.14;100.00
20444;BME280;10381;53.730;10.010;2023-05-02T01:18:58;101148.88;;;9.09;100.00
20444;BME280;10381;53.730;10.010;2023-05-02T01:23:05;101153.56;;;9.05;100.00
20444;BME280;10381;53.730;10.010;2023-05-02T01:31:14;101159.94;;;9.03;100.00
20444;BME280;10381;53.730;10.010;2023-05-02T01:35:16;101163.50;;;9.02;100.00
20444;BME280;10381;53.730;10.010;2023-05-02T01:39:19;101171.09;;;9.06;100.00
20444;BME280;10381;53.730;10.010;2023-05-02T01:43:20;101180.00;;;9.05;100.00
20444;BME280;10381;53.730;10.010;2023-05-02T01:47:22;101177.47;;;9.04;100.00
20444;BME280;10381;53.730;10.010;2023-05-02T01:51:27;101191.88;;;9.00;100.00
20444;BME280;10381;53.730;10.010;2023-05-02T01:55:32;101186.31;;;8.91;100.00
20444;BME280;10381;53.730;10.010;2023-05-02T01:59:35;101185.25;;;8.94;100.00
20444;BME280;10381;53.730;10.010;2023-05-02T02:03:36;101188.50;;;8.98;100.00
20444;BME280;10381;53.730;10.010;2023-05-02T02:07:36;101194.16;;;9.04;100.00
20444;BME280;10381;53.730;10.010;2023-05-02T02:11:43;101194.06;;;9.06;100.00
20444;BME280;10381;53.730;10.010;2023-05-02T02:15:46;101208.69;;;8.99;100.00
20444;BME280;10381;53.730;10.010;2023-05-02T02:19:48;101209.72;;;8.61;100.00
20444;BME280;10381;53.730;10.010;2023-05-02T02:23:54;101220.06;;;8.40;100.00
20444;BME280;10381;53.730;10.010;2023-05-02T02:27:56;101236.91;;;8.00;100.00
20444;BME280;10381;53.730;10.010;2023-05-02T02:31:57;101230.06;;;7.85;100.00
20444;BME280;10381;53.730;10.010;2023-05-02T02:40:48;101245.25;;;7.68;100.00
20444;BME280;10381;53.730;10.010;2023-05-02T02:53:08;101276.66;;;7.33;100.00
20444;BME280;10381;53.730;10.010;2023-05-02T02:57:32;101281.28;;;7.17;100.00
20444;BME280;10381;53.730;10.010;2023-05-02T03:01:38;101301.50;;;6.62;100.00
20444;BME280;10381;53.730;10.010;2023-05-02T03:05:43;101297.56;;;6.55;100.00
20444;BME280;10381;53.730;10.010;2023-05-02T03:09:45;101306.25;;;6.28;100.00
20444;BME280;10381;53.730;10.010;2023-05-02T03:13:46;101296.66;;;6.13;100.00
20444;BME280;10381;53.730;10.010;2023-05-02T03:17:46;101304.53;;;6.13;100.00
20444;BME280;10381;53.730;10.010;2023-05-02T03:21:47;101312.06;;;6.19;100.00
20444;BME280;10381;53.730;10.010;2023-05-02T03:25:47;101314.44;;;6.24;100.00
20444;BME280;10381;53.730;10.010;2023-05-02T03:29:48;101317.41;;;6.17;100.00
20444;BME280;10381;53.730;10.010;2023-05-02T03:33:49;101323.16;;;6.10;100.00
20444;BME280;10381;53.730;10.010;2023-05-02T03:37:49;101335.34;;;6.11;100.00
20444;BME280;10381;53.730;10.010;2023-05-02T03:41:50;101332.00;;;6.09;100.00
20444;BME280;10381;53.730;10.010;2023-05-02T03:45:50;101336.31;;;6.10;100.00
20444;BME280;10381;53.730;10.010;2023-05-02T03:49:50;101337.16;;;6.10;100.00
20444;BME280;10381;53.730;10.010;2023-05-02T03:53:52;101339.78;;;6.10;100.00
20444;BME280;10381;53.730;10.010;2023-05-02T03:57:52;101341.66;;;6.08;100.00
20444;BME280;10381;53.730;10.010;2023-05-02T04:01:52;101345.16;;;6.09;100.00
20444;BME280;10381;53.730;10.010;2023-05-02T04:05:53;101360.06;;;6.08;100.00
20444;BME280;10381;53.730;10.010;2023-05-02T04:09:53;101367.88;;;6.10;100.00
20444;BME280;10381;53.730;10.010;2023-05-02T04:13:53;101365.25;;;6.10;100.00
20444;BME280;10381;53.730;10.010;2023-05-02T04:17:56;101374.81;;;6.11;100.00
20444;BME280;10381;53.730;10.010;2023-05-02T04:21:57;101389.47;;;6.01;100.00
20444;BME280;10381;53.730;10.010;2023-05-02T04:25:57;101404.91;;;6.07;100.00
20444;BME280;10381;53.730;10.010;2023-05-02T04:29:57;101401.00;;;5.98;100.00
20444;BME280;10381;53.730;10.010;2023-05-02T04:33:58;101408.06;;;5.97;100.00
20444;BME280;10381;53.730;10.010;2023-05-02T04:37:58;101421.03;;;6.01;100.00
20444;BME280;10381;53.730;10.010;2023-05-02T04:41:59;101422.06;;;5.98;100.00
20444;BME280;10381;53.730;10.010;2023-05-02T04:45:59;101435.63;;;6.06;100.00
20444;BME280;10381;53.730;10.010;2023-05-02T04:50:00;101439.03;;;5.92;100.00
20444;BME280;10381;53.730;10.010;2023-05-02T04:54:00;101447.25;;;5.86;100.00
20444;BME280;10381;53.730;10.010;2023-05-02T04:58:00;101466.50;;;5.87;100.00
20444;BME280;10381;53.730;10.010;2023-05-02T05:02:00;101466.50;;;5.87;100.00
20444;BME280;10381;53.730;10.010;2023-05-02T05:06:01;101469.81;;;5.90;100.00
20444;BME280;10381;53.730;10.010;2023-05-02T05:10:01;101470.59;;;5.92;100.00
20444;BME280;10381;53.730;10.010;2023-05-02T05:14:02;101484.84;;;5.88;100.00
20444;BME280;10381;53.730;10.010;2023-05-02T05:18:03;101494.25;;;5.92;100.00
20444;BME280;10381;53.730;10.010;2023-05-02T05:22:03;101493.56;;;5.89;100.00
20444;BME280;10381;53.730;10.010;2023-05-02T05:26:16;101499.28;;;5.97;100.00
20444;BME280;10381;53.730;10.010;2023-05-02T05:30:16;101494.25;;;5.92;100.00
20444;BME280;10381;53.730;10.010;2023-05-02T05:34:16;101502.47;;;5.86;100.00
20444;BME280;10381;53.730;10.010;2023-05-02T05:38:17;101515.91;;;5.97;100.00
20444;BME280;10381;53.730;10.010;2023-05-02T05:42:17;101518.59;;;6.12;100.00
20444;BME280;10381;53.730;10.010;2023-05-02T05:46:17;101521.94;;;6.00;100.00
20444;BME280;10381;53.730;10.010;2023-05-02T05:50:17;101522.13;;;6.11;100.00
20444;BME280;10381;53.730;10.010;2023-05-02T05:54:18;101530.94;;;6.26;100.00
20444;BME280;10381;53.730;10.010;2023-05-02T05:58:18;101539.19;;;6.19;100.00
20444;BME280;10381;53.730;10.010;2023-05-02T06:02:18;101540.97;;;6.19;100.00
20444;BME280;10381;53.730;10.010;2023-05-02T06:06:19;101542.31;;;6.26;100.00
20444;BME280;10381;53.730;10.010;2023-05-02T06:10:19;101546.81;;;6.24;100.00
20444;BME280;10381;53.730;10.010;2023-05-02T06:14:19;101558.69;;;6.31;100.00
20444;BME280;10381;53.730;10.010;2023-05-02T06:18:19;101563.22;;;6.44;100.00
20444;BME280;10381;53.730;10.010;2023-05-02T06:22:20;101582.75;;;6.39;100.00
20444;BME280;10381;53.730;10.010;2023-05-02T06:26:20;101589.25;;;6.18;100.00
20444;BME280;10381;53.730;10.010;2023-05-02T06:30:21;101585.50;;;6.38;100.00
20444;BME280;10381;53.730;10.010;2023-05-02T06:34:21;101597.75;;;6.23;100.00
20444;BME280;10381;53.730;10.010;2023-05-02T06:38:22;101603.66;;;6.43;100.00
20444;BME280;10381;53.730;10.010;2023-05-02T06:42:23;101607.97;;;6.44;100.00
20444;BME280;10381;53.730;10.010;2023-05-02T06:46:27;101617.44;;;6.62;100.00
20444;BME280;10381;53.730;10.010;2023-05-02T06:50:28;101633.38;;;6.75;100.00
20444;BME280;10381;53.730;10.010;2023-05-02T06:54:28;101630.66;;;6.76;100.00
20444;BME280;10381;53.730;10.010;2023-05-02T06:58:29;101634.50;;;6.85;100.00
20444;BME280;10381;53.730;10.010;2023-05-02T07:02:29;101638.50;;;6.62;100.00
20444;BME280;10381;53.730;10.010;2023-05-02T07:06:29;101656.44;;;6.86;100.00
20444;BME280;10381;53.730;10.010;2023-05-02T07:10:30;101661.22;;;7.38;100.00
20444;BME280;10381;53.730;10.010;2023-05-02T07:14:30;101671.56;;;7.12;100.00
20444;BME280;10381;53.730;10.010;2023-05-02T07:18:30;101671.56;;;6.82;100.00
20444;BME280;10381;53.730;10.010;2023-05-02T07:22:31;101673.47;;;7.24;100.00
20444;BME280;10381;53.730;10.010;2023-05-02T07:26:31;101677.44;;;7.01;100.00
20444;BME280;10381;53.730;10.010;2023-05-02T07:30:31;101684.47;;;7.60;100.00
20444;BME280;10381;53.730;10.010;2023-05-02T07:34:32;101688.47;;;7.08;100.00
20444;BME280;10381;53.730;10.010;2023-05-02T07:38:32;101695.78;;;6.89;100.00
20444;BME280;10381;53.730;10.010;2023-05-02T07:42:32;101693.41;;;7.29;100.00
20444;BME280;10381;53.730;10.010;2023-05-02T07:46:33;101695.66;;;6.90;100.00
20444;BME280;10381;53.730;10.010;2023-05-02T07:50:33;101705.63;;;7.15;100.00
20444;BME280;10381;53.730;10.010;2023-05-02T07:54:33;101707.28;;;7.61;100.00
20444;BME280;10381;53.730;10.010;2023-05-02T07:58:35;101708.13;;;7.61;100.00
20444;BME280;10381;53.730;10.010;2023-05-02T08:02:36;101716.19;;;7.30;100.00
20444;BME280;10381;53.730;10.010;2023-05-02T08:06:36;101718.47;;;7.64;100.00
20444;BME280;10381;53.730;10.010;2023-05-02T08:10:36;101725.63;;;7.91;100.00
20444;BME280;10381;53.730;10.010;2023-05-02T08:14:36;101732.34;;;7.82;100.00
20444;BME280;10381;53.730;10.010;2023-05-02T08:18:37;101758.44;;;7.58;100.00
20444;BME280;10381;53.730;10.010;2023-05-02T08:22:37;101745.88;;;7.47;100.00
20444;BME280;10381;53.730;10.010;2023-05-02T08:26:37;101745.63;;;7.81;100.00
20444;BME280;10381;53.730;10.010;2023-05-02T08:30:38;101759.22;;;7.89;100.00
20444;BME280;10381;53.730;10.010;2023-05-02T08:34:38;101770.81;;;7.42;100.00
20444;BME280;10381;53.730;10.010;2023-05-02T08:38:38;101770.31;;;7.80;100.00
20444;BME280;10381;53.730;10.010;2023-05-02T08:42:41;101769.94;;;8.98;100.00
20444;BME280;10381;53.730;10.010;2023-05-02T08:46:43;101775.38;;;8.82;97.55
20444;BME280;10381;53.730;10.010;2023-05-02T08:50:44;101774.06;;;8.74;100.00
20444;BME280;10381;53.730;10.010;2023-05-02T08:54:47;101777.63;;;8.88;100.00
20444;BME280;10381;53.730;10.010;2023-05-02T08:58:50;101781.88;;;8.49;100.00
20444;BME280;10381;53.730;10.010;2023-05-02T09:07:06;101784.19;;;9.35;100.00
20444;BME280;10381;53.730;10.010;2023-05-02T09:11:07;101786.06;;;8.66;100.00
20444;BME280;10381;53.730;10.010;2023-05-02T09:15:19;101802.22;;;9.68;97.25
20444;BME280;10381;53.730;10.010;2023-05-02T09:19:23;101804.06;;;9.28;92.15
20444;BME280;10381;53.730;10.010;2023-05-02T09:23:36;101803.00;;;9.30;94.05
20444;BME280;10381;53.730;10.010;2023-05-02T09:27:53;101810.84;;;9.45;95.26
20444;BME280;10381;53.730;10.010;2023-05-02T09:31:54;101820.38;;;9.34;96.80
20444;BME280;10381;53.730;10.010;2023-05-02T09:35:54;101829.63;;;9.67;96.77
20444;BME280;10381;53.730;10.010;2023-05-02T09:40:05;101823.13;;;9.06;100.00
20444;BME280;10381;53.730;10.010;2023-05-02T09:44:08;101823.44;;;8.74;100.00
20444;BME280;10381;53.730;10.010;2023-05-02T09:48:09;101837.97;;;9.21;100.00
20444;BME280;10381;53.730;10.010;2023-05-02T09:52:15;101833.63;;;8.66;100.00
20444;BME280;10381;53.730;10.010;2023-05-02T09:56:16;101837.09;;;9.08;100.00
20444;BME280;10381;53.730;10.010;2023-05-02T10:00:17;101845.66;;;9.38;100.00
20444;BME280;10381;53.730;10.010;2023-05-02T10:04:18;101844.00;;;9.50;100.00
20444;BME280;10381;53.730;10.010;2023-05-02T10:08:21;101837.97;;;9.48;100.00
20444;BME280;10381;53.730;10.010;2023-05-02T10:12:23;101832.91;;;9.18;100.00
20444;BME280;10381;53.730;10.010;2023-05-02T10:16:27;101839.78;;;9.73;100.00
20444;BME280;10381;53.730;10.010;2023-05-02T10:20:32;101840.34;;;10.04;98.75
20444;BME280;10381;53.730;10.010;2023-05-02T10:24:34;101841.06;;;10.44;100.00
20444;BME280;10381;53.730;10.010;2023-05-02T10:28:36;101842.00;;;10.56;99.24
20444;BME280;10381;53.730;10.010;2023-05-02T10:32:37;101846.66;;;9.63;100.00
20444;BME280;10381;53.730;10.010;2023-05-02T10:36:37;101854.75;;;10.26;97.37
20444;BME280;10381;53.730;10.010;2023-05-02T10:40:39;101852.50;;;9.28;100.00
20444;BME280;10381;53.730;10.010;2023-05-02T10:44:40;101867.28;;;9.18;100.00
20444;BME280;10381;53.730;10.010;2023-05-02T10:48:41;101874.28;;;9.59;100.00
20444;BME280;10381;53.730;10.010;2023-05-02T10:52:41;101868.28;;;9.82;100.00
20444;BME280;10381;53.730;10.010;2023-05-02T10:57:14;101877.94;;;9.96;94.29
20444;BME280;10381;53.730;10.010;2023-05-02T11:01:31;101881.03;;;10.03;90.47
20444;BME280;10381;53.730;10.010;2023-05-02T11:06:26;101882.66;;;9.78;89.15
20444;BME280;10381;53.730;10.010;2023-05-02T11:18:26;101888.97;;;10.16;90.13
20444;BME280;10381;53.730;10.010;2023-05-02T11:22:46;101892.75;;;9.86;100.00
20444;BME280;10381;53.730;10.010;2023-05-02T11:26:47;101898.66;;;9.37;100.00
20444;BME280;10381;53.730;10.010;2023-05-02T11:30:47;101889.97;;;9.35;100.00
20444;BME280;10381;53.730;10.010;2023-05-02T11:34:50;101903.91;;;8.83;100.00
20444;BME280;10381;53.730;10.010;2023-05-02T11:38:51;101910.84;;;9.12;100.00
20444;BME280;10381;53.730;10.010;2023-05-02T11:42:52;101924.09;;;9.52;100.00
20444;BME280;10381;53.730;10.010;2023-05-02T11:46:54;101915.63;;;9.87;100.00
20444;BME280;10381;53.730;10.010;2023-05-02T11:50:57;101928.81;;;10.40;100.00
20444;BME280;10381;53.730;10.010;2023-05-02T11:54:58;101929.34;;;9.39;100.00
20444;BME280;10381;53.730;10.010;2023-05-02T11:58:59;101929.97;;;10.10;99.31
20444;BME280;10381;53.730;10.010;2023-05-02T12:03:00;101931.94;;;10.83;93.77
20444;BME280;10381;53.730;10.010;2023-05-02T12:07:00;101944.03;;;10.87;90.97
20444;BME280;10381;53.730;10.010;2023-05-02T12:11:01;101948.66;;;9.27;92.21
20444;BME280;10381;53.730;10.010;2023-05-02T12:15:09;101950.41;;;9.68;92.66
20444;BME280;10381;53.730;10.010;2023-05-02T12:19:09;101960.16;;;9.80;79.54
20444;BME280;10381;53.730;10.010;2023-05-02T12:23:10;101962.50;;;10.38;79.48
20444;BME280;10381;53.730;10.010;2023-05-02T12:27:12;101972.22;;;10.24;78.81
20444;BME280;10381;53.730;10.010;2023-05-02T12:31:12;101976.50;;;9.87;77.50
20444;BME280;10381;53.730;10.010;2023-05-02T12:35:20;101976.22;;;9.65;76.36
20444;BME280;10381;53.730;10.010;2023-05-02T12:39:36;101978.19;;;9.88;77.76
20444;BME280;10381;53.730;10.010;2023-05-02T12:43:47;101973.13;;;9.98;80.01
20444;BME280;10381;53.730;10.010;2023-05-02T12:47:47;101980.91;;;10.27;80.26
20444;BME280;10381;53.730;10.010;2023-05-02T12:51:52;101987.44;;;10.61;78.02
20444;BME280;10381;53.730;10.010;2023-05-02T12:56:02;101981.63;;;10.03;86.04
20444;BME280;10381;53.730;10.010;2023-05-02T13:00:03;101995.81;;;9.62;91.57
20444;BME280;10381;53.730;10.010;2023-05-02T13:04:04;102003.06;;;9.31;99.94
20444;BME280;10381;53.730;10.010;2023-05-02T13:08:04;101992.81;;;9.94;98.52
20444;BME280;10381;53.730;10.010;2023-05-02T13:12:05;102004.72;;;10.14;91.93
20444;BME280;10381;53.730;10.010;2023-05-02T13:16:06;102000.94;;;9.51;98.95
20444;BME280;10381;53.730;10.010;2023-05-02T13:20:07;101995.28;;;10.10;91.47
20444;BME280;10381;53.730;10.010;2023-05-02T13:24:08;102005.44;;;10.43;88.68
20444;BME280;10381;53.730;10.010;2023-05-02T13:28:08;102003.78;;;11.54;82.52
20444;BME280;10381;53.730;10.010;2023-05-02T13:32:08;102010.44;;;10.73;81.73
20444;BME280;10381;53.730;10.010;2023-05-02T13:36:09;102007.34;;;10.41;86.18
20444;BME280;10381;53.730;10.010;2023-05-02T13:40:09;102024.25;;;9.58;94.32
20444;BME280;10381;53.730;10.010;2023-05-02T13:44:10;102017.31;;;9.70;100.00
20444;BME280;10381;53.730;10.010;2023-05-02T13:48:11;102029.47;;;9.46;100.00
20444;BME280;10381;53.730;10.010;2023-05-02T13:52:11;102023.16;;;10.15;94.83
20444;BME280;10381;53.730;10.010;2023-05-02T13:56:11;102034.53;;;9.90;86.75
20444;BME280;10381;53.730;10.010;2023-05-02T14:00:12;102023.03;;;10.70;84.37
20444;BME280;10381;53.730;10.010;2023-05-02T14:04:12;102025.88;;;10.41;84.01
20444;BME280;10381;53.730;10.010;2023-05-02T14:08:13;102032.78;;;9.76;91.71
20444;BME280;10381;53.730;10.010;2023-05-02T14:12:17;102014.00;;;9.94;96.08
20444;BME280;10381;53.730;10.010;2023-05-02T14:16:17;102035.66;;;10.13;96.26
20444;BME280;10381;53.730;10.010;2023-05-02T14:20:17;102044.91;;;10.20;92.38
20444;BME280;10381;53.730;10.010;2023-05-02T14:24:18;102037.16;;;9.90;97.90
20444;BME280;10381;53.730;10.010;2023-05-02T14:28:19;102035.44;;;10.16;89.51
20444;BME280;10381;53.730;10.010;2023-05-02T14:32:20;102048.69;;;10.69;85.98
20444;BME280;10381;53.730;10.010;2023-05-02T14:36:20;102055.69;;;10.17;92.19
20444;BME280;10381;53.730;10.010;2023-05-02T14:40:21;102059.06;;;9.79;95.51
20444;BME280;10381;53.730;10.010;2023-05-02T14:44:21;102067.94;;;9.78;90.71
20444;BME280;10381;53.730;10.010;2023-05-02T14:48:21;102059.53;;;9.86;87.58
20444;BME280;10381;53.730;10.010;2023-05-02T14:52:21;102068.03;;;10.04;86.78
20444;BME280;10381;53.730;10.010;2023-05-02T14:56:22;102058.53;;;10.14;82.59
20444;BME280;10381;53.730;10.010;2023-05-02T15:00:23;102060.47;;;10.78;79.16
20444;BME280;10381;53.730;10.010;2023-05-02T15:04:23;102071.22;;;10.09;81.52
20444;BME280;10381;53.730;10.010;2023-05-02T15:08:25;102073.09;;;9.94;82.58
20444;BME280;10381;53.730;10.010;2023-05-02T15:12:25;102076.69;;;9.52;80.16
20444;BME280;10381;53.730;10.010;2023-05-02T15:16:26;102076.03;;;9.90;80.72
20444;BME280;10381;53.730;10.010;2023-05-02T15:20:26;102082.22;;;11.58;74.41
20444;BME280;10381;53.730;10.010;2023-05-02T15:24:26;102083.00;;;11.47;70.03
20444;BME280;10381;53.730;10.010;2023-05-02T15:28:27;102085.13;;;10.53;70.69
20444;BME280;10381;53.730;10.010;2023-05-02T15:32:28;102098.09;;;11.71;68.97
20444;BME280;10381;53.730;10.010;2023-05-02T15:36:28;102091.84;;;11.72;66.37
20444;BME280;10381;53.730;10.010;2023-05-02T15:40:29;102095.44;;;10.70;70.09
20444;BME280;10381;53.730;10.010;2023-05-02T15:44:29;102103.66;;;10.13;78.82
20444;BME280;10381;53.730;10.010;2023-05-02T15:48:33;102119.63;;;9.84;79.11
20444;BME280;10381;53.730;10.010;2023-05-02T15:52:33;102109.88;;;9.57;84.45
20444;BME280;10381;53.730;10.010;2023-05-02T15:56:34;102105.31;;;9.45;87.94
20444;BME280;10381;53.730;10.010;2023-05-02T16:00:34;102116.66;;;9.33;87.16
20444;BME280;10381;53.730;10.010;2023-05-02T16:04:34;102104.31;;;9.19;85.32
20444;BME280;10381;53.730;10.010;2023-05-02T16:08:35;102105.72;;;9.39;85.02
20444;BME280;10381;53.730;10.010;2023-05-02T16:12:35;102128.00;;;9.35;84.91
20444;BME280;10381;53.730;10.010;2023-05-02T16:16:35;102122.41;;;8.96;86.34
20444;BME280;10381;53.730;10.010;2023-05-02T16:20:35;102131.88;;;9.29;86.10
20444;BME280;10381;53.730;10.010;2023-05-02T16:24:36;102125.81;;;9.13;91.63
20444;BME280;10381;53.730;10.010;2023-05-02T16:28:36;102132.06;;;9.69;88.19
20444;BME280;10381;53.730;10.010;2023-05-02T16:32:36;102132.09;;;9.26;88.12
20444;BME280;10381;53.730;10.010;2023-05-02T16:36:37;102131.28;;;8.95;94.64
20444;BME280;10381;53.730;10.010;2023-05-02T16:40:38;102140.75;;;9.43;93.34
20444;BME280;10381;53.730;10.010;2023-05-02T16:44:39;102141.84;;;8.81;92.80
20444;BME280;10381;53.730;10.010;2023-05-02T16:48:39;102138.03;;;8.71;90.29
20444;BME280;10381;53.730;10.010;2023-05-02T16:52:39;102149.63;;;9.56;88.34
20444;BME280;10381;53.730;10.010;2023-05-02T16:56:40;102152.28;;;9.56;79.90
20444;BME280;10381;53.730;10.010;2023-05-02T17:00:40;102156.63;;;9.14;82.14
20444;BME280;10381;53.730;10.010;2023-05-02T17:04:40;102172.91;;;10.07;76.70
20444;BME280;10381;53.730;10.010;2023-05-02T17:08:41;102164.06;;;10.35;75.91
20444;BME280;10381;53.730;10.010;2023-05-02T17:12:41;102163.88;;;11.03;73.54
20444;BME280;10381;53.730;10.010;2023-05-02T17:16:43;102172.13;;;11.76;66.64
20444;BME280;10381;53.730;10.010;2023-05-02T17:20:43;102173.78;;;12.02;63.63
20444;BME280;10381;53.730;10.010;2023-05-02T17:24:45;102164.59;;;8.84;74.10
20444;BME280;10381;53.730;10.010;2023-05-02T17:28:48;102160.94;;;8.40;84.38
20444;BME280;10381;53.730;10.010;2023-05-02T17:32:52;102161.84;;;8.39;91.09
20444;BME280;10381;53.730;10.010;2023-05-02T17:36:53;102160.22;;;8.37;96.17
20444;BME280;10381;53.730;10.010;2023-05-02T17:40:53;102162.06;;;8.20;100.00
20444;BME280;10381;53.730;10.010;2023-05-02T17:44:53;102163.59;;;8.08;100.00
20444;BME280;10381;53.730;10.010;2023-05-02T17:48:53;102158.56;;;8.04;100.00
20444;BME280;10381;53.730;10.010;2023-05-02T17:52:54;102165.97;;;7.97;100.00
20444;BME280;10381;53.730;10.010;2023-05-02T17:56:55;102169.81;;;7.92;100.00
20444;BME280;10381;53.730;10.010;2023-05-02T18:00:56;102174.06;;;7.94;100.00
20444;BME280;10381;53.730;10.010;2023-05-02T18:04:57;102174.84;;;7.96;100.00
20444;BME280;10381;53.730;10.010;2023-05-02T18:08:59;102174.75;;;7.82;100.00
20444;BME280;10381;53.730;10.010;2023-05-02T18:12:59;102178.88;;;7.86;100.00
20444;BME280;10381;53.730;10.010;2023-05-02T18:17:01;102186.56;;;7.75;100.00
20444;BME280;10381;53.730;10.010;2023-05-02T18:21:02;102185.00;;;7.71;100.00
20444;BME280;10381;53.730;10.010;2023-05-02T18:25:03;102188.66;;;7.68;100.00
20444;BME280;10381;53.730;10.010;2023-05-02T18:29:03;102193.59;;;7.58;100.00
20444;BME280;10381;53.730;10.010;2023-05-02T18:33:04;102201.75;;;7.54;100.00
20444;BME280;10381;53.730;10.010;2023-05-02T18:37:05;102195.94;;;7.47;100.00
20444;BME280;10381;53.730;10.010;2023-05-02T18:41:05;102197.00;;;7.43;100.00
20444;BME280;10381;53.730;10.010;2023-05-02T18:45:08;102198.25;;;7.36;100.00
20444;BME280;10381;53.730;10.010;2023-05-02T18:49:09;102197.59;;;7.32;100.00
20444;BME280;10381;53.730;10.010;2023-05-02T18:53:09;102198.41;;;7.17;100.00
20444;BME280;10381;53.730;10.010;2023-05-02T18:57:10;102205.28;;;7.02;100.00
20444;BME280;10381;53.730;10.010;2023-05-02T19:01:12;102210.78;;;6.80;100.00
20444;BME280;10381;53.730;10.010;2023-05-02T19:05:13;102213.63;;;6.75;100.00
20444;BME280;10381;53.730;10.010;2023-05-02T19:09:14;102222.94;;;6.46;100.00
20444;BME280;10381;53.730;10.010;2023-05-02T19:13:15;102223.09;;;6.43;100.00
20444;BME280;10381;53.730;10.010;2023-05-02T19:17:16;102217.78;;;6.45;100.00
20444;BME280;10381;53.730;10.010;2023-05-02T19:21:16;102222.13;;;6.27;100.00
20444;BME280;10381;53.730;10.010;2023-05-02T19:25:16;102231.97;;;6.04;100.00
20444;BME280;10381;53.730;10.010;2023-05-02T19:29:16;102236.78;;;5.94;100.00
20444;BME280;10381;53.730;10.010;2023-05-02T19:33:17;102249.88;;;6.15;100.00
20444;BME280;10381;53.730;10.010;2023-05-02T19:37:17;102253.13;;;6.20;100.00
20444;BME280;10381;53.730;10.010;2023-05-02T19:41:18;102261.59;;;6.27;100.00
20444;BME280;10381;53.730;10.010;2023-05-02T19:45:19;102267.50;;;6.32;100.00
20444;BME280;10381;53.730;10.010;2023-05-02T19:49:19;102272.13;;;6.27;100.00
20444;BME280;10381;53.730;10.010;2023-05-02T19:53:19;102268.81;;;6.23;100.00
20444;BME280;10381;53.730;10.010;2023-05-02T19:57:20;102272.34;;;6.22;100.00
20444;BME280;10381;53.730;10.010;2023-05-02T20:01:20;102271.56;;;6.20;100.00
20444;BME280;10381;53.730;10.010;2023-05-02T20:05:20;102270.75;;;6.18;100.00
20444;BME280;10381;53.730;10.010;2023-05-02T20:09:21;102274.41;;;6.15;100.00
20444;BME280;10381;53.730;10.010;2023-05-02T20:13:21;102284.03;;;6.16;100.00
20444;BME280;10381;53.730;10.010;2023-05-02T20:17:21;102274.59;;;6.11;100.00
20444;BME280;10381;53.730;10.010;2023-05-02T20:21:22;102284.16;;;5.94;100.00
20444;BME280;10381;53.730;10.010;2023-05-02T20:25:23;102284.16;;;5.94;100.00
20444;BME280;10381;53.730;10.010;2023-05-02T20:29:23;102284.16;;;5.94;100.00
20444;BME280;10381;53.730;10.010;2023-05-02T20:33:24;102284.31;;;5.90;100.00
20444;BME280;10381;53.730;10.010;2023-05-02T20:37:24;102289.19;;;5.79;100.00
20444;BME280;10381;53.730;10.010;2023-05-02T20:41:24;102287.69;;;5.52;100.00
20444;BME280;10381;53.730;10.010;2023-05-02T20:45:28;102290.25;;;5.33;100.00
20444;BME280;10381;53.730;10.010;2023-05-02T20:49:32;102287.34;;;5.19;100.00
20444;BME280;10381;53.730;10.010;2023-05-02T20:53:34;102287.06;;;5.05;100.00
20444;BME280;10381;53.730;10.010;2023-05-02T20:57:35;102294.78;;;4.87;100.00
20444;BME280;10381;53.730;10.010;2023-05-02T21:01:35;102292.38;;;4.59;100.00
20444;BME280;10381;53.730;10.010;2023-05-02T21:05:35;102301.97;;;4.60;100.00
20444;BME280;10381;53.730;10.010;2023-05-02T21:09:36;102301.84;;;4.63;100.00
20444;BME280;10381;53.730;10.010;2023-05-02T21:13:36;102298.50;;;4.38;100.00
20444;BME280;10381;53.730;10.010;2023-05-02T21:17:37;102300.59;;;4.04;100.00